Time;durP1;ratioP1;P1;durP2;ratioP2;P2;SDS_P1;SDS_P2;PMS_P1;PMS_P2;Temp;Humidity;BMP_temperature;BMP_pressure;BME280_temperature;BME280_humidity;BME280_pressure;Samples;Min_cycle;Max_cycle;Signal;HPM_P1;HPM_P2
2021/08/17 00:02:03;;;;;;;24.77;10.50;;;;;;;20.90;50.14;101620.19;5015376;28;20022;-60
2021/08/17 00:04:28;;;;;;;28.55;9.70;;;;;;;20.91;50.21;101618.28;5015266;28;20561;-60
2021/08/17 00:06:54;;;;;;;28.15;10.15;;;;;;;20.92;50.10;101625.44;5015569;28;20405;-60
2021/08/17 00:09:19;;;;;;;29.95;10.43;;;;;;;20.90;50.34;101614.72;5015601;28;20102;-60
2021/08/17 00:11:45;;;;;;;23.73;10.02;;;;;;;20.91;49.76;101626.44;5016252;28;20128;-60
2021/08/17 00:14:10;;;;;;;31.73;10.95;;;;;;;20.92;50.04;101617.25;5015627;28;20037;-60
2021/08/17 00:16:35;;;;;;;30.52;10.50;;;;;;;20.92;49.94;101606.38;5015803;28;20025;-60
2021/08/17 00:19:01;;;;;;;27.35;9.95;;;;;;;20.92;50.31;101607.22;5015632;28;20084;-60
2021/08/17 00:21:26;;;;;;;33.70;11.10;;;;;;;20.91;50.10;101607.38;5014740;28;20061;-60
2021/08/17 00:23:52;;;;;;;32.72;11.07;;;;;;;20.92;50.35;101609.09;5014310;28;20026;-60
2021/08/17 00:26:17;;;;;;;26.65;10.98;;;;;;;20.88;49.82;101605.03;5014777;28;20105;-60
2021/08/17 00:28:42;;;;;;;24.42;9.73;;;;;;;20.90;49.90;101609.28;5014456;28;20088;-60
2021/08/17 00:31:08;;;;;;;26.75;10.70;;;;;;;20.88;50.06;101611.31;5014451;28;20029;-60
2021/08/17 00:33:33;;;;;;;31.58;10.82;;;;;;;20.89;50.66;101612.16;5014042;28;20540;-61
2021/08/17 00:36:00;;;;;;;24.58;10.98;;;;;;;20.85;50.58;101600.78;5014745;28;20488;-60
2021/08/17 00:38:26;;;;;;;28.70;10.68;;;;;;;20.88;50.70;101615.94;5014372;28;20386;-60
2021/08/17 00:40:53;;;;;;;27.80;9.68;;;;;;;20.87;49.82;101615.09;5014332;28;20053;-61
2021/08/17 00:43:18;;;;;;;30.23;9.77;;;;;;;20.81;50.37;101606.75;5016941;28;20029;-60
2021/08/17 00:45:44;;;;;;;25.98;10.80;;;;;;;20.85;50.91;101617.13;5018512;28;20470;-60
2021/08/17 00:48:09;;;;;;;30.67;10.55;;;;;;;20.85;50.77;101616.28;5001170;28;20105;-61
2021/08/17 00:50:35;;;;;;;25.08;10.45;;;;;;;20.84;50.48;101617.31;5018562;28;20108;-60
2021/08/17 00:53:01;;;;;;;22.98;10.85;;;;;;;20.82;50.35;101611.19;5018380;28;20029;-60
2021/08/17 00:55:27;;;;;;;32.00;10.60;;;;;;;20.83;50.84;101613.72;5000591;28;20433;-60
2021/08/17 00:57:52;;;;;;;29.80;10.38;;;;;;;20.79;50.64;101606.09;5000367;28;20061;-61
2021/08/17 01:00:18;;;;;;;30.30;10.43;;;;;;;20.81;50.14;101604.91;5000732;28;20163;-60
2021/08/17 01:02:44;;;;;;;32.13;11.15;;;;;;;20.79;50.21;101604.22;5018044;28;20038;-60
2021/08/17 01:05:10;;;;;;;24.48;10.90;;;;;;;20.81;50.71;101604.91;5018167;28;20418;-60
2021/08/17 01:07:36;;;;;;;24.27;11.00;;;;;;;20.82;50.39;101605.75;5018375;28;20053;-60
2021/08/17 01:10:02;;;;;;;33.25;12.10;;;;;;;20.79;50.49;101606.09;4999946;28;20025;-60
2021/08/17 01:12:28;;;;;;;29.08;11.07;;;;;;;20.80;50.12;101605.06;5018183;28;20053;-60
2021/08/17 01:14:53;;;;;;;27.73;11.15;;;;;;;20.78;50.07;101607.97;5018183;28;20127;-60
2021/08/17 01:17:20;;;;;;;25.27;10.25;;;;;;;20.76;50.24;101601.84;5017788;28;20358;-60
2021/08/17 01:19:45;;;;;;;25.15;9.98;;;;;;;20.72;50.00;101602.38;5018036;28;20029;-60
2021/08/17 01:22:11;;;;;;;30.92;11.07;;;;;;;20.74;50.67;101598.44;5018525;28;20030;-60
2021/08/17 01:24:37;;;;;;;28.40;9.63;;;;;;;20.74;50.63;101597.63;5000187;28;20084;-60
2021/08/17 01:27:03;;;;;;;31.70;10.35;;;;;;;20.73;50.47;101609.53;5018014;28;20038;-60
2021/08/17 01:29:28;;;;;;;24.85;10.60;;;;;;;20.69;50.63;101603.56;5000431;28;20026;-60
2021/08/17 01:31:54;;;;;;;26.58;9.85;;;;;;;20.71;50.17;101606.13;5017605;28;20109;-60
2021/08/17 01:34:19;;;;;;;23.17;9.77;;;;;;;20.70;50.62;101604.44;5017452;28;20028;-60
2021/08/17 01:36:44;;;;;;;26.67;10.02;;;;;;;20.68;50.60;101598.31;5017392;28;20034;-60
2021/08/17 01:39:10;;;;;;;27.20;10.95;;;;;;;20.68;50.88;101598.31;5017466;28;20053;-60
2021/08/17 01:41:35;;;;;;;26.15;10.27;;;;;;;20.66;50.25;101603.09;5017583;28;20110;-60
2021/08/17 01:44:07;;;;;;;27.00;9.48;;;;;;;20.65;50.83;101598.66;5017763;28;20033;-60
2021/08/17 01:46:33;;;;;;;32.67;12.47;;;;;;;20.66;50.51;101603.09;5017771;28;20466;-60
2021/08/17 01:48:58;;;;;;;29.30;11.13;;;;;;;20.66;50.34;101601.19;5017609;28;20320;-60
2021/08/17 01:51:23;;;;;;;29.02;10.13;;;;;;;20.65;50.61;101593.22;4999695;28;20049;-60
2021/08/17 01:53:49;;;;;;;26.92;10.30;;;;;;;20.66;50.31;101600.38;5015882;28;20092;-61
2021/08/17 01:56:15;;;;;;;30.73;11.05;;;;;;;20.66;50.21;101605.81;5017807;28;20033;-60
2021/08/17 01:58:41;;;;;;;28.88;11.45;;;;;;;20.60;50.53;101590.19;4999750;28;20041;-60
2021/08/17 02:01:07;;;;;;;31.45;11.32;;;;;;;20.64;50.16;101602.41;5016838;28;20411;-60
2021/08/17 02:03:32;;;;;;;28.90;10.27;;;;;;;20.64;50.32;101607.84;5016601;28;20402;-61
2021/08/17 02:05:58;;;;;;;23.92;10.07;;;;;;;20.62;50.61;101593.56;5017120;28;20034;-60
2021/08/17 02:08:23;;;;;;;39.70;11.77;;;;;;;20.61;50.53;101592.72;5016812;28;20028;-60
2021/08/17 02:10:49;;;;;;;23.90;9.38;;;;;;;20.57;50.96;101596.81;5016545;28;20125;-60
2021/08/17 02:13:16;;;;;;;31.88;11.10;;;;;;;20.59;50.57;101599.34;4999161;28;20032;-60
2021/08/17 02:15:43;;;;;;;26.75;11.07;;;;;;;20.61;50.84;101602.75;5016732;28;20033;-61
2021/08/17 02:18:08;;;;;;;31.05;10.65;;;;;;;20.61;50.52;101608.19;5016695;28;20036;-61
2021/08/17 02:20:34;;;;;;;24.27;9.98;;;;;;;20.59;50.38;101613.81;5016528;28;20026;-60
2021/08/17 02:22:59;;;;;;;29.17;10.93;;;;;;;20.58;50.90;101608.53;5017058;28;20134;-60
2021/08/17 02:25:25;;;;;;;30.73;11.18;;;;;;;20.56;50.97;101606.00;5016535;28;20032;-60
2021/08/17 02:27:50;;;;;;;30.33;11.32;;;;;;;20.54;50.46;101618.09;5016732;28;20485;-60
2021/08/17 02:30:15;;;;;;;25.85;9.70;;;;;;;20.55;50.66;101608.88;5016429;28;20022;-61
2021/08/17 02:32:41;;;;;;;35.22;12.30;;;;;;;20.53;50.83;101610.94;5016523;28;20030;-60
2021/08/17 02:35:07;;;;;;;32.47;10.50;;;;;;;20.51;50.57;101610.28;5016862;28;20034;-60
2021/08/17 02:37:32;;;;;;;28.60;9.93;;;;;;;20.51;50.50;101613.00;5016068;28;20033;-60
2021/08/17 02:39:58;;;;;;;30.80;10.85;;;;;;;20.50;50.95;101614.88;5016893;28;20076;-61
2021/08/17 02:42:23;;;;;;;30.48;10.23;;;;;;;20.48;50.46;101614.19;5016408;28;20041;-61
2021/08/17 02:44:48;;;;;;;34.30;10.85;;;;;;;20.43;50.35;101610.31;4998548;28;20108;-60
2021/08/17 02:47:14;;;;;;;24.80;9.85;;;;;;;20.46;50.32;101607.25;5016690;28;20050;-60
2021/08/17 02:49:39;;;;;;;28.02;10.52;;;;;;;20.42;50.41;101598.56;5016131;28;20109;-60
2021/08/17 02:52:05;;;;;;;25.90;10.00;;;;;;;20.43;50.57;101599.41;5016232;28;20386;-60
2021/08/17 02:54:35;;;;;;;28.67;10.77;;;;;;;20.44;50.59;101609.25;4999106;28;20041;-61
2021/08/17 02:57:02;;;;;;;30.40;11.75;;;;;;;20.39;50.47;101598.91;5016074;28;20037;-60
2021/08/17 02:59:27;;;;;;;26.70;10.82;;;;;;;20.43;50.50;101602.13;4998466;28;20055;-60
2021/08/17 03:01:52;;;;;;;26.00;9.35;;;;;;;20.40;50.48;101597.91;5015917;28;20100;-60
2021/08/17 03:04:18;;;;;;;26.88;9.23;;;;;;;20.41;50.67;101615.91;4998551;28;20076;-60
2021/08/17 03:06:43;;;;;;;24.52;9.55;;;;;;;20.41;50.64;101602.28;5015388;28;20029;-61
2021/08/17 03:09:08;;;;;;;25.70;10.25;;;;;;;20.41;50.63;101605.00;5015892;28;20029;-60
2021/08/17 03:11:34;;;;;;;28.48;10.43;;;;;;;20.31;50.58;101588.91;5015847;28;20028;-60
2021/08/17 03:13:59;;;;;;;26.38;9.98;;;;;;;20.37;50.41;101590.06;4997866;28;20026;-60
2021/08/17 03:16:25;;;;;;;24.40;9.32;;;;;;;20.33;50.55;101600.44;5015870;28;20466;-61
2021/08/17 03:18:50;;;;;;;28.27;9.73;;;;;;;20.33;50.64;101603.16;4997925;28;20469;-60
2021/08/17 03:21:16;;;;;;;25.58;9.27;;;;;;;20.31;50.42;101596.22;5015336;28;20097;-60
2021/08/17 03:23:42;;;;;;;26.27;10.35;;;;;;;20.30;50.29;101597.22;5015548;28;20022;-60
2021/08/17 03:26:07;;;;;;;30.88;9.88;;;;;;;20.31;50.48;101601.66;5015968;28;20034;-60
2021/08/17 03:28:32;;;;;;;23.40;9.70;;;;;;;20.30;50.39;101595.34;4997744;28;20026;-61
2021/08/17 03:30:58;;;;;;;33.35;10.43;;;;;;;20.29;50.93;101599.13;5015612;28;20075;-60
2021/08/17 03:33:23;;;;;;;27.05;9.25;;;;;;;20.30;50.87;101595.34;5015816;28;20442;-60
2021/08/17 03:35:49;;;;;;;23.90;9.07;;;;;;;20.31;50.86;101596.22;5015174;28;20025;-61
2021/08/17 03:38:14;;;;;;;21.67;8.80;;;;;;;20.30;50.29;101605.38;4997995;28;20140;-60
2021/08/17 03:40:40;;;;;;;24.70;9.32;;;;;;;20.31;50.75;101593.50;5015940;28;20026;-60
2021/08/17 03:43:05;;;;;;;26.63;8.50;;;;;;;20.27;50.21;101590.25;5015139;28;20421;-60
2021/08/17 03:45:31;;;;;;;27.45;9.45;;;;;;;20.30;50.40;101594.50;4998099;28;20030;-60
2021/08/17 03:47:56;;;;;;;25.00;9.20;;;;;;;20.28;50.55;101591.97;5015297;28;20530;-60
2021/08/17 03:50:21;;;;;;;26.50;9.32;;;;;;;20.26;50.66;101585.84;5014760;28;20057;-60
2021/08/17 03:52:47;;;;;;;28.90;9.38;;;;;;;20.33;51.00;101594.16;5014953;28;20030;-60
2021/08/17 03:55:13;;;;;;;29.13;9.68;;;;;;;20.30;50.64;101591.78;5014853;28;20033;-61
2021/08/17 03:57:38;;;;;;;30.42;10.02;;;;;;;20.30;50.79;101589.06;4997428;28;20018;-60
2021/08/17 04:00:07;;;;;;;27.27;9.68;;;;;;;20.29;51.18;101593.69;5015154;28;20129;-60
2021/08/17 04:02:32;;;;;;;28.80;9.13;;;;;;;20.28;50.59;101583.81;4980881;28;20030;-60
2021/08/17 04:04:58;;;;;;;22.83;8.65;;;;;;;20.28;50.56;101581.06;4997560;28;20553;-60
2021/08/17 04:07:23;;;;;;;26.50;9.45;;;;;;;20.26;51.35;101572.25;5014753;28;20382;-61
2021/08/17 04:09:48;;;;;;;25.17;8.23;;;;;;;20.30;50.79;101595.34;5015297;28;20025;-60
2021/08/17 04:12:14;;;;;;;29.15;10.00;;;;;;;20.28;51.32;101596.56;5014449;28;20037;-61
2021/08/17 04:14:39;;;;;;;28.52;9.32;;;;;;;20.33;50.92;101603.16;5014987;28;20079;-60
2021/08/17 04:17:04;;;;;;;34.65;9.88;;;;;;;20.32;51.08;101587.84;4996896;28;20455;-60
2021/08/17 04:19:30;;;;;;;28.33;10.75;;;;;;;20.31;51.27;101594.34;5015503;28;20564;-60
2021/08/17 04:21:55;;;;;;;24.15;9.82;;;;;;;20.32;51.18;101597.91;5015201;28;20030;-60
2021/08/17 04:24:20;;;;;;;22.50;9.05;;;;;;;20.30;51.10;101589.91;5015143;28;20096;-61
2021/08/17 04:26:46;;;;;;;30.08;10.23;;;;;;;20.35;51.20;101600.28;5014703;28;20493;-60
2021/08/17 04:29:11;;;;;;;32.40;10.10;;;;;;;20.37;51.24;101600.09;5014744;28;20080;-60
2021/08/17 04:31:36;;;;;;;27.33;9.93;;;;;;;20.40;51.22;101594.31;4996934;28;20442;-60
2021/08/17 04:34:02;;;;;;;28.58;10.70;;;;;;;20.39;50.88;101595.34;5014696;28;20038;-61
2021/08/17 04:36:28;;;;;;;37.35;10.40;;;;;;;20.41;50.43;101591.41;4997386;28;20459;-61
2021/08/17 04:38:53;;;;;;;29.65;9.73;;;;;;;20.44;50.62;101598.38;5014611;28;20105;-61
2021/08/17 04:41:19;;;;;;;31.85;10.88;;;;;;;20.46;51.20;101604.50;5014375;28;20018;-60
2021/08/17 04:43:45;;;;;;;31.52;9.88;;;;;;;20.48;50.78;101602.47;5014652;28;20155;-61
2021/08/17 04:46:11;;;;;;;30.85;9.73;;;;;;;20.50;51.09;101605.84;4997449;28;20022;-60
2021/08/17 04:48:36;;;;;;;31.88;11.07;;;;;;;20.52;51.12;101610.09;5014487;28;20052;-60
2021/08/17 04:51:02;;;;;;;35.63;10.65;;;;;;;20.57;51.02;101617.75;4996919;28;20037;-60
2021/08/17 04:53:27;;;;;;;27.58;9.98;;;;;;;20.60;51.40;101628.28;5013662;28;20502;-60
2021/08/17 04:55:53;;;;;;;26.02;10.05;;;;;;;20.62;51.07;101627.09;5014190;28;20382;-60
2021/08/17 04:58:18;;;;;;;25.70;10.43;;;;;;;20.66;50.89;101633.03;4996520;28;20056;-60
2021/08/17 05:00:45;;;;;;;27.83;10.52;;;;;;;20.68;51.23;101631.00;5014198;28;20101;-60
2021/08/17 05:03:10;;;;;;;33.00;10.73;;;;;;;20.71;51.38;101631.50;5014056;28;20054;-60
2021/08/17 05:05:35;;;;;;;24.50;10.13;;;;;;;20.78;51.60;101626.19;5014195;28;20463;-60
2021/08/17 05:08:08;;;;;;;29.88;10.77;;;;;;;20.81;51.09;101620.38;5014574;28;20025;-60
2021/08/17 05:10:33;;;;;;;24.55;9.50;;;;;;;20.85;50.75;101621.75;5014192;28;20425;-60
2021/08/17 05:13:00;;;;;;;28.73;11.40;;;;;;;20.88;51.37;101613.22;4996636;28;20025;-60
2021/08/17 05:15:25;;;;;;;30.67;11.07;;;;;;;20.92;50.79;101623.56;5013890;28;20029;-60
2021/08/17 05:17:51;;;;;;;34.80;10.25;;;;;;;21.01;50.52;101629.84;5014138;28;20028;-60
2021/08/17 05:20:16;;;;;;;31.95;10.65;;;;;;;21.06;51.22;101634.75;5014064;28;20022;-61
2021/08/17 05:22:42;;;;;;;25.33;9.68;;;;;;;21.09;50.76;101638.00;5013690;28;20029;-60
2021/08/17 05:25:07;;;;;;;25.70;10.18;;;;;;;21.10;50.77;101636.97;5013294;28;20045;-61
2021/08/17 05:27:33;;;;;;;23.98;10.30;;;;;;;21.16;50.85;101647.16;5013560;28;20378;-60
2021/08/17 05:29:59;;;;;;;30.55;10.93;;;;;;;21.17;50.49;101643.41;5017068;28;20018;-61
2021/08/17 05:32:24;;;;;;;46.70;13.02;;;;;;;21.18;50.04;101644.25;5017138;28;20046;-60
2021/08/17 05:34:49;;;;;;;32.85;10.93;;;;;;;21.16;50.66;101635.41;5016966;28;20026;-61
2021/08/17 05:37:15;;;;;;;28.45;11.05;;;;;;;21.18;50.84;101639.66;5000011;28;20105;-61
2021/08/17 05:39:42;;;;;;;29.25;10.82;;;;;;;21.19;50.74;101644.06;5017399;28;20028;-61
2021/08/17 05:42:09;;;;;;;36.50;11.98;;;;;;;21.21;50.30;101643.91;5016418;28;20038;-62
2021/08/17 05:44:36;;;;;;;24.25;10.40;;;;;;;21.23;50.77;101636.38;5017418;28;20022;-61
2021/08/17 05:47:02;;;;;;;30.80;11.43;;;;;;;21.26;50.77;101636.88;4999313;28;20037;-61
2021/08/17 05:49:27;;;;;;;31.27;12.38;;;;;;;21.29;50.51;101620.19;5017003;28;20029;-61
2021/08/17 05:51:52;;;;;;;29.52;10.35;;;;;;;21.35;50.76;101624.91;5016941;28;20370;-60
2021/08/17 05:54:18;;;;;;;31.40;10.20;;;;;;;21.39;51.20;101626.25;5016817;28;20431;-61
2021/08/17 05:56:43;;;;;;;31.00;10.00;;;;;;;21.43;50.88;101624.88;5016647;28;20374;-61
2021/08/17 05:59:08;;;;;;;29.85;11.15;;;;;;;21.46;50.42;101621.78;5017037;28;20358;-61
2021/08/17 06:01:34;;;;;;;30.92;10.98;;;;;;;21.54;50.78;101625.47;5016390;28;20360;-61
2021/08/17 06:03:59;;;;;;;32.38;10.75;;;;;;;21.57;50.08;101627.84;5016460;28;20046;-61
2021/08/17 06:06:25;;;;;;;32.75;11.32;;;;;;;21.56;50.63;101623.41;5016083;28;20066;-61
2021/08/17 06:08:51;;;;;;;30.83;9.45;;;;;;;21.58;50.77;101632.28;5016529;28;20029;-61
2021/08/17 06:11:16;;;;;;;29.15;10.95;;;;;;;21.61;49.89;101640.91;5016327;28;20025;-61
2021/08/17 06:13:42;;;;;;;26.77;11.32;;;;;;;21.60;50.16;101638.38;5016214;28;20030;-61
2021/08/17 06:16:07;;;;;;;29.25;9.65;;;;;;;21.62;49.90;101648.06;5016225;28;20510;-61
2021/08/17 06:18:32;;;;;;;23.55;9.65;;;;;;;21.64;50.40;101648.72;5016087;28;20030;-61
2021/08/17 06:20:58;;;;;;;23.75;10.32;;;;;;;21.66;50.49;101645.84;5015839;28;20026;-64
2021/08/17 06:23:23;;;;;;;31.48;10.52;;;;;;;21.69;50.88;101653.66;4998546;28;20022;-61
2021/08/17 06:25:48;;;;;;;29.08;10.52;;;;;;;21.73;50.24;101652.25;5015681;28;20080;-61
2021/08/17 06:28:14;;;;;;;27.83;10.90;;;;;;;21.76;49.67;101649.16;5015653;28;20025;-61
2021/08/17 06:30:40;;;;;;;25.70;10.07;;;;;;;21.74;50.29;101641.19;5015829;28;20022;-62
2021/08/17 06:33:06;;;;;;;29.02;9.90;;;;;;;21.81;50.42;101661.22;5015791;28;20037;-61
2021/08/17 06:35:32;;;;;;;23.67;9.13;;;;;;;21.83;49.51;101655.59;5015863;28;20428;-61
2021/08/17 06:37:57;;;;;;;26.10;10.63;;;;;;;21.85;50.24;101648.09;5015890;28;20022;-61
2021/08/17 06:40:24;;;;;;;28.67;10.43;;;;;;;21.87;50.17;101646.91;5014985;28;20032;-61
2021/08/17 06:42:49;;;;;;;31.30;10.73;;;;;;;21.90;50.46;101652.00;4997802;28;20105;-61
2021/08/17 06:45:15;;;;;;;32.50;10.75;;;;;;;21.88;50.41;101653.22;5015326;28;20156;-61
2021/08/17 06:47:47;;;;;;;22.20;9.65;;;;;;;21.92;49.96;101649.06;5015578;28;20022;-61
2021/08/17 06:50:12;;;;;;;33.43;10.83;;;;;;;21.97;49.29;101652.94;4998182;28;20099;-61
2021/08/17 06:52:37;;;;;;;25.08;10.48;;;;;;;22.02;49.51;101650.53;5015480;28;20471;-61
2021/08/17 06:55:03;;;;;;;27.55;9.88;;;;;;;22.07;50.35;101647.25;5015331;28;20034;-62
2021/08/17 06:57:29;;;;;;;33.42;10.48;;;;;;;22.08;49.54;101632.56;5015296;28;20036;-62
2021/08/17 06:59:54;;;;;;;23.85;9.45;;;;;;;22.12;49.80;101628.44;5015416;28;20442;-62
2021/08/17 07:02:19;;;;;;;27.08;9.68;;;;;;;22.14;50.08;101631.00;5015079;28;20028;-63
2021/08/17 07:04:45;;;;;;;23.00;9.75;;;;;;;22.15;49.85;101628.06;5014840;28;20152;-61
2021/08/17 07:07:10;;;;;;;32.35;9.15;;;;;;;22.18;49.33;101624.97;5014996;28;20036;-61
2021/08/17 07:09:35;;;;;;;23.65;9.30;;;;;;;22.19;49.17;101623.94;5015012;28;20029;-62
2021/08/17 07:12:01;;;;;;;29.38;10.25;;;;;;;22.15;49.82;101606.22;4981082;28;20030;-61
2021/08/17 07:14:26;;;;;;;25.30;9.25;;;;;;;22.20;49.60;101622.03;5014945;28;20458;-62
2021/08/17 07:16:51;;;;;;;24.95;9.88;;;;;;;22.25;49.12;101625.91;5014986;28;20123;-61
2021/08/17 07:19:17;;;;;;;28.67;9.18;;;;;;;22.30;49.65;101634.41;5014816;28;20374;-62
2021/08/17 07:21:42;;;;;;;20.05;8.30;;;;;;;22.35;49.08;101625.66;5015198;28;20030;-62
2021/08/17 07:24:07;;;;;;;24.45;9.15;;;;;;;22.41;49.31;101625.75;5014838;28;20022;-62
2021/08/17 07:26:33;;;;;;;22.95;9.38;;;;;;;22.45;48.93;101624.34;5014447;28;20026;-62
2021/08/17 07:28:58;;;;;;;25.38;9.43;;;;;;;22.52;48.84;101628.03;4996835;28;20030;-61
2021/08/17 07:31:23;;;;;;;29.10;9.48;;;;;;;22.63;49.07;101629.44;5014533;28;20457;-62
2021/08/17 07:33:49;;;;;;;23.40;9.32;;;;;;;22.75;48.79;101630.72;5014645;28;20120;-61
2021/08/17 07:36:15;;;;;;;19.60;8.77;;;;;;;22.82;49.43;101634.38;5014990;28;20114;-62
2021/08/17 07:38:40;;;;;;;22.95;9.23;;;;;;;22.90;49.07;101653.41;5014583;28;20060;-62
2021/08/17 07:41:06;;;;;;;20.75;9.13;;;;;;;22.95;48.81;101648.19;4980530;28;20025;-62
2021/08/17 07:43:31;;;;;;;21.40;9.90;;;;;;;23.01;48.14;101649.31;5014265;28;20018;-62
2021/08/17 07:45:57;;;;;;;23.52;9.77;;;;;;;23.03;48.48;101639.88;5014121;28;20033;-62
2021/08/17 07:48:22;;;;;;;26.70;10.40;;;;;;;23.09;49.13;101647.34;4996519;28;20056;-62
2021/08/17 07:50:47;;;;;;;25.02;9.70;;;;;;;23.12;49.16;101654.31;5014170;28;20026;-62
2021/08/17 07:53:13;;;;;;;23.23;8.93;;;;;;;23.15;48.34;101648.47;4995885;28;20056;-62
2021/08/17 07:55:38;;;;;;;22.58;8.93;;;;;;;23.24;49.18;101663.72;5014193;28;20017;-62
2021/08/17 07:58:04;;;;;;;24.75;9.10;;;;;;;23.31;48.72;101670.09;5013920;28;20029;-62
2021/08/17 08:00:29;;;;;;;19.80;8.95;;;;;;;23.35;48.96;101660.50;5014274;28;20061;-62
2021/08/17 08:02:55;;;;;;;20.65;8.75;;;;;;;23.58;47.81;101657.63;4996022;28;20061;-62
2021/08/17 08:05:20;;;;;;;22.75;9.95;;;;;;;23.88;47.35;101644.66;5014097;28;20033;-62
2021/08/17 08:07:46;;;;;;;19.95;8.43;;;;;;;24.22;47.79;101653.88;5013905;28;20075;-62
2021/08/17 08:10:11;;;;;;;20.10;8.75;;;;;;;24.53;47.11;101661.69;5013688;28;20056;-62
2021/08/17 08:12:36;;;;;;;20.33;9.05;;;;;;;24.94;46.43;101666.41;5014213;28;20045;-62
2021/08/17 08:15:02;;;;;;;26.45;8.30;;;;;;;25.02;46.52;101666.22;5013955;28;20131;-62
2021/08/17 08:17:27;;;;;;;21.67;8.15;;;;;;;25.06;47.25;101651.06;5013832;28;20032;-62
2021/08/17 08:19:53;;;;;;;27.15;9.43;;;;;;;25.27;46.91;101631.72;5013866;28;20101;-62
2021/08/17 08:22:18;;;;;;;24.70;8.50;;;;;;;25.53;46.18;101626.38;5014126;28;20118;-62
2021/08/17 08:24:44;;;;;;;21.80;8.20;;;;;;;25.57;46.11;101619.44;5013953;28;20061;-62
2021/08/17 08:27:10;;;;;;;23.00;8.63;;;;;;;25.63;46.01;101624.06;5014033;28;20037;-62
2021/08/17 08:29:36;;;;;;;22.30;6.85;;;;;;;25.76;46.17;101615.88;4996018;28;20067;-62
2021/08/17 08:32:02;;;;;;;16.70;7.65;;;;;;;26.10;45.41;101620.31;4996309;28;20062;-62
2021/08/17 08:34:27;;;;;;;17.98;8.35;;;;;;;26.29;45.08;101614.00;5013826;28;20382;-62
2021/08/17 08:36:52;;;;;;;20.17;7.25;;;;;;;26.45;45.23;101627.28;5013843;28;20076;-62
2021/08/17 08:39:18;;;;;;;17.92;8.23;;;;;;;26.68;45.22;101624.06;4996305;28;20026;-62
2021/08/17 08:41:45;;;;;;;25.85;8.98;;;;;;;26.74;44.94;101617.72;5013599;28;20030;-61
2021/08/17 08:44:11;;;;;;;21.90;7.55;;;;;;;26.70;45.06;101596.34;5014111;28;20099;-60
2021/08/17 08:46:37;;;;;;;17.45;7.45;;;;;;;26.75;44.53;101611.13;5014047;28;20431;-61
2021/08/17 08:49:04;;;;;;;17.20;6.65;;;;;;;26.90;44.22;101609.03;4996351;28;20034;-60
2021/08/17 08:51:30;;;;;;;20.77;7.43;;;;;;;27.17;44.33;101596.84;5013376;28;20108;-60
2021/08/17 08:53:56;;;;;;;18.20;7.40;;;;;;;27.40;44.32;101611.94;4995737;28;20520;-60
2021/08/17 08:56:21;;;;;;;14.05;6.43;;;;;;;27.59;43.21;101613.75;5013649;28;20466;-60
2021/08/17 08:58:46;;;;;;;15.30;6.82;;;;;;;27.57;43.86;101615.91;5013711;28;20053;-60
2021/08/17 09:01:13;;;;;;;18.17;7.05;;;;;;;27.31;44.04;101627.88;5013427;28;20025;-60
2021/08/17 09:03:49;;;;;;;21.48;8.43;;;;;;;27.62;42.92;101630.69;4993896;28;20080;-62
2021/08/17 09:06:15;;;;;;;17.13;7.38;;;;;;;28.00;42.83;101622.34;4997825;28;20033;-60
2021/08/17 09:08:41;;;;;;;15.10;7.68;;;;;;;28.28;42.19;101622.78;4997484;28;20026;-60
2021/08/17 09:11:20;;;;;;;26.13;7.57;;;;;;;28.26;41.82;101621.31;4980031;28;20391;-60
2021/08/17 09:13:46;;;;;;;18.67;7.82;;;;;;;28.62;41.31;101610.34;4997744;28;20186;-60
2021/08/17 09:16:28;;;;;;;17.05;7.93;;;;;;;28.89;42.07;101616.47;4996241;28;20022;-60
2021/08/17 09:18:53;;;;;;;18.20;6.50;;;;;;;29.32;41.38;101619.09;4997334;28;20076;-60
2021/08/17 09:21:52;;;;;;;20.05;7.43;;;;;;;29.65;40.77;101613.94;4996106;28;20018;-60
2021/08/17 09:24:20;;;;;;;17.95;7.10;;;;;;;30.11;40.15;101593.88;4964859;28;20371;-60
2021/08/17 09:26:52;;;;;;;15.77;7.00;;;;;;;30.19;39.62;101579.72;4996312;28;20026;-60
2021/08/17 09:29:22;;;;;;;13.82;6.30;;;;;;;29.93;40.17;101603.13;4997716;28;20034;-60
2021/08/17 09:31:50;;;;;;;15.00;6.47;;;;;;;29.58;40.18;101599.41;4996472;28;20025;-60
2021/08/17 09:34:15;;;;;;;9.50;5.60;;;;;;;29.26;40.26;101604.31;4997319;28;20023;-60
2021/08/17 09:36:43;;;;;;;12.75;5.30;;;;;;;28.89;40.73;101594.38;4996602;28;20079;-60
2021/08/17 09:39:09;;;;;;;13.88;6.43;;;;;;;28.61;40.48;101589.38;4997565;28;20097;-61
2021/08/17 09:41:35;;;;;;;9.20;4.55;;;;;;;28.43;40.70;101605.03;4997539;28;20019;-61
2021/08/17 09:44:05;;;;;;;12.88;5.32;;;;;;;28.33;39.72;101593.72;4997553;28;20080;-61
2021/08/17 09:46:35;;;;;;;13.07;6.65;;;;;;;28.25;40.76;101594.84;4996167;28;20467;-60
2021/08/17 09:49:26;;;;;;;11.48;5.18;;;;;;;28.12;40.63;101593.03;4996996;28;20022;-60
2021/08/17 09:51:52;;;;;;;15.10;6.00;;;;;;;28.05;40.03;101603.28;4996964;28;20378;-60
2021/08/17 09:54:20;;;;;;;9.60;4.25;;;;;;;27.94;40.77;101594.88;4995422;28;20478;-60
2021/08/17 09:57:01;;;;;;;9.55;4.70;;;;;;;27.71;40.67;101612.00;4996887;28;20483;-60
2021/08/17 09:59:27;;;;;;;13.50;5.00;;;;;;;27.58;40.00;101623.94;4979201;28;20060;-63
2021/08/17 10:01:54;;;;;;;15.10;5.18;;;;;;;27.44;40.87;101633.34;4995559;28;20022;-63
2021/08/17 10:04:21;;;;;;;10.27;4.43;;;;;;;27.23;40.29;101624.53;5007957;28;20458;-60
2021/08/17 10:06:48;;;;;;;10.00;4.80;;;;;;;27.10;40.87;101620.78;5016322;28;20025;-61
2021/08/17 10:09:14;;;;;;;13.90;4.93;;;;;;;26.96;40.77;101624.66;4998470;28;20425;-59
2021/08/17 10:11:40;;;;;;;12.38;5.07;;;;;;;26.80;41.26;101624.28;5016161;28;20076;-60
2021/08/17 10:14:06;;;;;;;8.85;3.97;;;;;;;26.67;41.05;101636.13;5015844;28;20113;-60
2021/08/17 10:16:33;;;;;;;8.90;4.57;;;;;;;26.47;41.01;101630.66;5015085;28;20084;-60
2021/08/17 10:18:59;;;;;;;8.35;3.92;;;;;;;26.34;41.09;101640.81;4998607;28;20022;-61
2021/08/17 10:21:25;;;;;;;9.13;4.13;;;;;;;26.18;41.29;101630.28;4998824;28;20033;-60
2021/08/17 10:23:50;;;;;;;9.15;4.05;;;;;;;25.99;40.98;101632.75;5016048;28;20045;-60
2021/08/17 10:26:32;;;;;;;9.00;3.65;;;;;;;25.72;41.65;101608.22;4998259;28;20129;-60
2021/08/17 10:28:59;;;;;;;13.35;4.60;;;;;;;25.66;41.42;101604.44;5015751;28;20046;-60
2021/08/17 10:31:26;;;;;;;14.70;4.88;;;;;;;25.61;41.58;101615.19;5015811;28;20379;-60
2021/08/17 10:34:13;;;;;;;11.88;4.45;;;;;;;25.54;41.76;101614.34;5016323;28;20021;-60
2021/08/17 10:36:44;;;;;;;10.07;4.82;;;;;;;25.51;41.53;101614.75;4997884;28;20017;-62
2021/08/17 10:39:16;;;;;;;9.77;5.13;;;;;;;25.49;42.10;101613.28;5015685;28;20029;-62
2021/08/17 10:41:41;;;;;;;8.90;3.92;;;;;;;25.53;41.42;101617.28;4997830;28;20025;-62
2021/08/17 10:44:09;;;;;;;11.90;5.25;;;;;;;25.44;41.48;101619.34;4981435;28;20025;-62
2021/08/17 10:46:48;;;;;;;9.30;4.47;;;;;;;25.31;41.53;101606.44;5015364;28;20032;-62
2021/08/17 10:49:30;;;;;;;13.85;5.03;;;;;;;25.32;42.26;101615.53;5015367;28;20025;-62
2021/08/17 10:52:03;;;;;;;12.02;4.95;;;;;;;25.32;42.08;101623.75;5015198;28;20026;-62
2021/08/17 10:54:28;;;;;;;10.68;4.40;;;;;;;25.30;41.81;101609.38;5015532;28;20052;-62
2021/08/17 10:56:54;;;;;;;11.80;4.63;;;;;;;25.29;42.11;101602.22;5015403;28;20446;-62
2021/08/17 10:59:39;;;;;;;11.52;4.25;;;;;;;25.30;42.16;101601.16;5015381;28;20056;-63
2021/08/17 11:02:05;;;;;;;10.23;3.45;;;;;;;25.29;41.71;101596.75;5015237;28;20140;-62
2021/08/17 11:04:39;;;;;;;8.65;4.15;;;;;;;25.31;41.58;101600.13;4994172;28;20054;-63
2021/08/17 11:07:27;;;;;;;8.55;4.28;;;;;;;25.38;41.71;101579.00;4995693;28;20027;-62
2021/08/17 11:09:54;;;;;;;11.20;4.05;;;;;;;25.46;42.12;101582.41;4995294;28;20026;-62
2021/08/17 11:12:20;;;;;;;11.23;4.70;;;;;;;25.55;41.88;101579.50;4995328;28;20061;-62